Aéroport int. de Vancouver, Colombie-Britannique

Conditions des dernières 24 heures

Date / Heure
(HNP)
Conditions Temp
(°F)
Humidité
(%)
Point de rosée
(°F)
Vent
(mph)
Pression (pouces) Visibilité
(miles)
21 décembre 2014
8:00 Brouillard 39   97 38 NNO 4 29.8 15
7:00 Brouillard 42 99 42 SE 5 29.8 15
6:00 Généralement nuageux 42 98 41 ENE 5 29.7 15
5:00 Partiellement nuageux 43 98 42 SE 2 29.7 15
4:00 Généralement nuageux 43 96 42 OSO 6 29.6 15
3:00 Généralement dégagé 44 96 43 SO 9 29.6 15
2:00 Généralement dégagé 45 97 44 OSO 12 29.6 15
1:00 Généralement dégagé 44 97 43 O 12 29.5 15
0:00 Généralement dégagé 43 97 43 O 5 29.4 15
20 décembre 2014
23:00 Généralement nuageux 48   95 47 ONO 7 29.4 15
22:00 Pluie faible 48   96 46 ENE 9 29.3 15
21:00 Généralement nuageux 48   95 47 NE 11 29.3 15
20:00 Pluie faible 47 97 46 ENE 7 29.3 12
19:00 Pluie 46 97 45 ENE 12 29.3 4
18:00 Pluie 45 97 44 E 11 29.4 4
17:00 Pluie faible 45 96 44 E 13 29.4 6
16:00 Pluie faible 45 95 44 E 15 29.4 8
15:00 Pluie faible 45 94 43 E 13 29.4 6
14:00 Pluie faible 44 95 43 E 14 29.4 6
13:00 Pluie faible 44 92 42 E 14 29.5 6
12:00 Pluie faible 46 85 42 E 11 29.5 15
11:00 Généralement nuageux 47 80 41 ENE 11 29.6 15
10:00 Généralement nuageux 45 85 41 ENE 16 29.6 15
9:00 Pluie faible 43 91 41 ENE 18 rafale 25 29.6 8
8:00 Pluie faible 44 90 41 ENE 18 29.6 5
N.D. non disponible
↑ température la plus haute
↓ température la plus basse

Si vous désirez plus de données historiques sur les conditions météo, s.v.p. visitez Données climatologiques en ligne.

Ce que nous faisons

Date de modification :